Marcel — ONDP — position and weather

sailwx.info

Track history (hours):
 
Tides and Currents Weather Stations Pressure Air Temp Water Temp Dewpoint Dewpoint Depression Visibility Wind Speed Wind Dir Waves Ship Positions

Marcel

Last reported at 2016-May-23 18:33 UTC. Time now 2016-May-28 10:02 UTC.
Position N 39°18' W 009°50'.

Length 88 m; draft 3.8 m.

Type: Cargo ship. MMSI: 205439000.

Date/timePositionNaut miles runAvg speedWind from/ knotsBaromVisibWave heightAir tempDewpointWater temp
2016-May-23 18:33N 39°18' W 009°50'9 9.2
2016-May-23 17:33N 39°09' W 009°50'9 9.1
2016-May-23 16:33N 39°00' W 009°50'9 9.2
2016-May-23 15:33N 38°51' W 009°50'9 9.5
2016-May-23 14:33N 38°41' W 009°49'9 9.0
2016-May-23 13:33N 38°33' W 009°47'9 8.9
2016-May-23 12:33N 38°24' W 009°44'9 8.8
2016-May-23 11:33N 38°15' W 009°41'9 8.9
2016-May-23 10:33N 38°07' W 009°39'9 9.3
2016-May-23 09:33N 37°57' W 009°37'12 9.1
2016-May-23 08:14N 37°46' W 009°33'6 9.1
2016-May-23 07:33N 37°40' W 009°31'9 9.0
2016-May-23 06:33N 37°31' W 009°29'18 9.0
2016-May-23 04:33N 37°13' W 009°24'47 7.8
2016-May-22 22:33N 36°39' W 008°44'160 8.7
2016-May-22 04:09N 35°59' W 005°31'7 0.2
2016-May-20 16:30N 36°01' W 005°24'  
2016-May-17 18:23N 35°58' W 005°28'6 7.2
2016-May-17 17:33N 36°00' W 005°21'230 4.6
2016-May-15 15:19N 37°33' W 000°59'6 7.3
2016-May-15 14:33N 37°32' W 000°52'8 8.0
2016-May-15 13:32N 37°32' W 000°41'7 7.4
2016-May-15 12:33N 37°35' W 000°33'9 8.6
2016-May-15 11:33N 37°42' W 000°27'9 8.5
2016-May-15 10:33N 37°49' W 000°21'9 8.5
2016-May-15 09:29N 37°57' W 000°15'138 7.7
2016-May-14 15:32N 39°58' E 001°10'9 8.9
2016-May-14 14:31N 40°06' E 001°15'8 8.6
2016-May-14 13:33N 40°14' E 001°19'8 7.9
2016-May-14 12:33N 40°21' E 001°24'8 8.1
2016-May-14 11:33N 40°28' E 001°29'9 8.3
2016-May-14 10:25N 40°35' E 001°37'  
Track history (hours):
 
Tides and Currents Weather Stations Pressure Air Temp Water Temp Dewpoint Dewpoint Depression Visibility Wind Speed Wind Dir Waves Ship Positions

Marcel

Last reported at 2016-May-23 18:33 UTC. Time now 2016-May-28 10:02 UTC.
Position N 39°18' W 009°50'.

Length 88 m; draft 3.8 m.

Type: Cargo ship. MMSI: 205439000.

Date/timePositionNaut miles runAvg speedWind from/ knotsBaromVisibWave heightAir tempDewpointWater temp
2016-May-23 18:33N 39°18' W 009°50'9 9.2
2016-May-23 17:33N 39°09' W 009°50'9 9.1
2016-May-23 16:33N 39°00' W 009°50'9 9.2
2016-May-23 15:33N 38°51' W 009°50'9 9.5
2016-May-23 14:33N 38°41' W 009°49'9 9.0
2016-May-23 13:33N 38°33' W 009°47'9 8.9
2016-May-23 12:33N 38°24' W 009°44'9 8.8
2016-May-23 11:33N 38°15' W 009°41'9 8.9
2016-May-23 10:33N 38°07' W 009°39'9 9.3
2016-May-23 09:33N 37°57' W 009°37'12 9.1
2016-May-23 08:14N 37°46' W 009°33'6 9.1
2016-May-23 07:33N 37°40' W 009°31'9 9.0
2016-May-23 06:33N 37°31' W 009°29'18 9.0
2016-May-23 04:33N 37°13' W 009°24'47 7.8
2016-May-22 22:33N 36°39' W 008°44'160 8.7
2016-May-22 04:09N 35°59' W 005°31'7 0.2
2016-May-20 16:30N 36°01' W 005°24'  
2016-May-17 18:23N 35°58' W 005°28'6 7.2
2016-May-17 17:33N 36°00' W 005°21'230 4.6
2016-May-15 15:19N 37°33' W 000°59'6 7.3
2016-May-15 14:33N 37°32' W 000°52'8 8.0
2016-May-15 13:32N 37°32' W 000°41'7 7.4
2016-May-15 12:33N 37°35' W 000°33'9 8.6
2016-May-15 11:33N 37°42' W 000°27'9 8.5
2016-May-15 10:33N 37°49' W 000°21'9 8.5
2016-May-15 09:29N 37°57' W 000°15'138 7.7
2016-May-14 15:32N 39°58' E 001°10'9 8.9
2016-May-14 14:31N 40°06' E 001°15'8 8.6
2016-May-14 13:33N 40°14' E 001°19'8 7.9
2016-May-14 12:33N 40°21' E 001°24'8 8.1
2016-May-14 11:33N 40°28' E 001°29'9 8.3
2016-May-14 10:25N 40°35' E 001°37'  

Dump ship's entire track history